sensor_id;sensor_type;location;lat;lon;timestamp;temperature;humidity
14614;DHT22;7393;51.446;6.800;2023-05-14T00:01:03;14.30;1.00
14614;DHT22;7393;51.446;6.800;2023-05-14T00:03:32;14.30;29.10
14614;DHT22;7393;51.446;6.800;2023-05-14T00:05:59;14.20;99.10
14614;DHT22;7393;51.446;6.800;2023-05-14T00:08:26;14.10;99.90
14614;DHT22;7393;51.446;6.800;2023-05-14T00:10:54;14.10;99.90
14614;DHT22;7393;51.446;6.800;2023-05-14T00:13:21;14.10;99.90
14614;DHT22;7393;51.446;6.800;2023-05-14T00:15:48;14.00;99.90
14614;DHT22;7393;51.446;6.800;2023-05-14T00:18:15;13.90;1.00
14614;DHT22;7393;51.446;6.800;2023-05-14T00:20:41;13.90;1.00
14614;DHT22;7393;51.446;6.800;2023-05-14T00:23:08;13.90;1.00
14614;DHT22;7393;51.446;6.800;2023-05-14T00:25:35;13.90;1.00
14614;DHT22;7393;51.446;6.800;2023-05-14T00:28:03;13.90;99.90
14614;DHT22;7393;51.446;6.800;2023-05-14T00:30:30;13.80;99.90
14614;DHT22;7393;51.446;6.800;2023-05-14T00:32:57;13.80;99.90
14614;DHT22;7393;51.446;6.800;2023-05-14T00:35:24;13.80;43.30
14614;DHT22;7393;51.446;6.800;2023-05-14T00:37:51;13.80;83.30
14614;DHT22;7393;51.446;6.800;2023-05-14T00:40:18;13.70;97.60
14614;DHT22;7393;51.446;6.800;2023-05-14T00:42:45;13.70;99.90
14614;DHT22;7393;51.446;6.800;2023-05-14T00:45:13;13.70;34.20
14614;DHT22;7393;51.446;6.800;2023-05-14T00:47:40;13.60;34.70
14614;DHT22;7393;51.446;6.800;2023-05-14T00:50:08;13.60;32.30
14614;DHT22;7393;51.446;6.800;2023-05-14T00:52:35;13.50;99.90
14614;DHT22;7393;51.446;6.800;2023-05-14T00:55:03;13.50;99.90
14614;DHT22;7393;51.446;6.800;2023-05-14T00:57:31;13.50;99.90
14614;DHT22;7393;51.446;6.800;2023-05-14T00:59:58;13.50;99.90
14614;DHT22;7393;51.446;6.800;2023-05-14T01:02:26;13.40;99.90
14614;DHT22;7393;51.446;6.800;2023-05-14T01:04:53;13.30;99.90
14614;DHT22;7393;51.446;6.800;2023-05-14T01:07:28;13.30;99.90
14614;DHT22;7393;51.446;6.800;2023-05-14T01:09:59;13.30;99.90
14614;DHT22;7393;51.446;6.800;2023-05-14T01:12:33;13.20;1.00
14614;DHT22;7393;51.446;6.800;2023-05-14T01:15:06;13.20;1.00
14614;DHT22;7393;51.446;6.800;2023-05-14T01:17:50;13.10;1.00
14614;DHT22;7393;51.446;6.800;2023-05-14T01:20:17;13.10;42.20
14614;DHT22;7393;51.446;6.800;2023-05-14T01:22:46;13.00;99.90
14614;DHT22;7393;51.446;6.800;2023-05-14T01:25:12;12.90;99.90
14614;DHT22;7393;51.446;6.800;2023-05-14T01:27:42;12.90;99.90
14614;DHT22;7393;51.446;6.800;2023-05-14T01:30:24;12.90;1.00
14614;DHT22;7393;51.446;6.800;2023-05-14T01:32:57;12.80;1.00
14614;DHT22;7393;51.446;6.800;2023-05-14T01:35:26;12.80;1.00
14614;DHT22;7393;51.446;6.800;2023-05-14T01:37:57;12.80;1.00
14614;DHT22;7393;51.446;6.800;2023-05-14T01:40:25;12.70;1.00
14614;DHT22;7393;51.446;6.800;2023-05-14T01:42:52;12.70;99.90
14614;DHT22;7393;51.446;6.800;2023-05-14T01:45:19;12.70;99.90
14614;DHT22;7393;51.446;6.800;2023-05-14T01:47:46;12.70;99.90
14614;DHT22;7393;51.446;6.800;2023-05-14T01:50:13;12.60;99.90
14614;DHT22;7393;51.446;6.800;2023-05-14T01:52:40;12.50;1.00
14614;DHT22;7393;51.446;6.800;2023-05-14T01:55:09;12.60;1.00
14614;DHT22;7393;51.446;6.800;2023-05-14T01:57:35;12.60;99.90
14614;DHT22;7393;51.446;6.800;2023-05-14T02:00:02;12.60;1.00
14614;DHT22;7393;51.446;6.800;2023-05-14T02:02:29;12.60;1.00
14614;DHT22;7393;51.446;6.800;2023-05-14T02:04:56;12.60;1.00
14614;DHT22;7393;51.446;6.800;2023-05-14T02:07:23;12.50;99.90
14614;DHT22;7393;51.446;6.800;2023-05-14T02:09:50;12.50;42.20
14614;DHT22;7393;51.446;6.800;2023-05-14T02:12:18;12.40;82.60
14614;DHT22;7393;51.446;6.800;2023-05-14T02:14:44;12.40;1.00
14614;DHT22;7393;51.446;6.800;2023-05-14T02:17:11;12.40;1.00
14614;DHT22;7393;51.446;6.800;2023-05-14T02:19:40;12.40;1.00
14614;DHT22;7393;51.446;6.800;2023-05-14T02:22:07;12.40;1.00
14614;DHT22;7393;51.446;6.800;2023-05-14T02:24:33;12.40;1.00
14614;DHT22;7393;51.446;6.800;2023-05-14T02:27:00;12.40;1.00
14614;DHT22;7393;51.446;6.800;2023-05-14T02:29:28;12.30;1.00
14614;DHT22;7393;51.446;6.800;2023-05-14T02:31:55;12.30;99.90
14614;DHT22;7393;51.446;6.800;2023-05-14T02:34:22;12.30;99.90
14614;DHT22;7393;51.446;6.800;2023-05-14T02:36:49;12.20;1.00
14614;DHT22;7393;51.446;6.800;2023-05-14T02:39:15;12.20;1.00
14614;DHT22;7393;51.446;6.800;2023-05-14T02:41:42;12.10;1.00
14614;DHT22;7393;51.446;6.800;2023-05-14T02:44:09;12.00;1.00
14614;DHT22;7393;51.446;6.800;2023-05-14T02:46:37;12.00;42.60
14614;DHT22;7393;51.446;6.800;2023-05-14T02:49:04;12.00;99.90
14614;DHT22;7393;51.446;6.800;2023-05-14T02:51:31;12.00;1.00
14614;DHT22;7393;51.446;6.800;2023-05-14T02:53:58;11.90;1.00
14614;DHT22;7393;51.446;6.800;2023-05-14T02:56:24;11.90;99.90
14614;DHT22;7393;51.446;6.800;2023-05-14T02:58:51;11.90;1.00
14614;DHT22;7393;51.446;6.800;2023-05-14T03:01:18;11.80;1.00
14614;DHT22;7393;51.446;6.800;2023-05-14T03:03:46;11.80;99.90
14614;DHT22;7393;51.446;6.800;2023-05-14T03:06:13;11.80;80.20
14614;DHT22;7393;51.446;6.800;2023-05-14T03:08:40;11.70;1.00
14614;DHT22;7393;51.446;6.800;2023-05-14T03:11:07;11.70;1.00
14614;DHT22;7393;51.446;6.800;2023-05-14T03:13:34;11.70;1.00
14614;DHT22;7393;51.446;6.800;2023-05-14T03:16:00;11.60;1.00
14614;DHT22;7393;51.446;6.800;2023-05-14T03:18:27;11.60;1.00
14614;DHT22;7393;51.446;6.800;2023-05-14T03:20:56;11.60;99.90
14614;DHT22;7393;51.446;6.800;2023-05-14T03:23:23;11.60;1.00
14614;DHT22;7393;51.446;6.800;2023-05-14T03:25:50;11.50;99.90
14614;DHT22;7393;51.446;6.800;2023-05-14T03:28:16;11.50;99.90
14614;DHT22;7393;51.446;6.800;2023-05-14T03:30:43;11.50;1.00
14614;DHT22;7393;51.446;6.800;2023-05-14T03:33:10;11.40;1.00
14614;DHT22;7393;51.446;6.800;2023-05-14T03:35:37;11.40;1.00
14614;DHT22;7393;51.446;6.800;2023-05-14T03:38:05;11.40;1.00
14614;DHT22;7393;51.446;6.800;2023-05-14T03:40:32;11.40;1.00
14614;DHT22;7393;51.446;6.800;2023-05-14T03:42:59;11.40;61.70
14614;DHT22;7393;51.446;6.800;2023-05-14T03:45:25;11.40;99.90
14614;DHT22;7393;51.446;6.800;2023-05-14T03:47:54;11.30;1.00
14614;DHT22;7393;51.446;6.800;2023-05-14T03:50:21;11.30;1.00
14614;DHT22;7393;51.446;6.800;2023-05-14T03:52:49;11.30;1.00
14614;DHT22;7393;51.446;6.800;2023-05-14T03:55:18;11.30;49.10
14614;DHT22;7393;51.446;6.800;2023-05-14T03:57:45;11.30;99.90
14614;DHT22;7393;51.446;6.800;2023-05-14T04:00:12;11.20;1.00
14614;DHT22;7393;51.446;6.800;2023-05-14T04:02:39;11.20;1.00
14614;DHT22;7393;51.446;6.800;2023-05-14T04:05:06;11.20;1.00
14614;DHT22;7393;51.446;6.800;2023-05-14T04:07:33;11.20;99.90
14614;DHT22;7393;51.446;6.800;2023-05-14T04:10:01;11.20;99.90
14614;DHT22;7393;51.446;6.800;2023-05-14T04:12:29;11.20;99.90
14614;DHT22;7393;51.446;6.800;2023-05-14T04:14:57;11.20;99.90
14614;DHT22;7393;51.446;6.800;2023-05-14T04:17:24;11.20;99.90
14614;DHT22;7393;51.446;6.800;2023-05-14T04:19:51;11.20;99.90
14614;DHT22;7393;51.446;6.800;2023-05-14T04:22:18;11.20;99.90
14614;DHT22;7393;51.446;6.800;2023-05-14T04:24:44;11.10;1.00
14614;DHT22;7393;51.446;6.800;2023-05-14T04:27:13;11.10;1.00
14614;DHT22;7393;51.446;6.800;2023-05-14T04:29:41;11.20;1.00
14614;DHT22;7393;51.446;6.800;2023-05-14T04:32:08;11.10;99.90
14614;DHT22;7393;51.446;6.800;2023-05-14T04:34:36;11.20;99.90
14614;DHT22;7393;51.446;6.800;2023-05-14T04:37:04;11.20;99.90
14614;DHT22;7393;51.446;6.800;2023-05-14T04:39:31;11.20;99.90
14614;DHT22;7393;51.446;6.800;2023-05-14T04:41:58;11.20;1.00
14614;DHT22;7393;51.446;6.800;2023-05-14T04:44:25;11.30;1.00
14614;DHT22;7393;51.446;6.800;2023-05-14T04:46:53;11.40;1.00
14614;DHT22;7393;51.446;6.800;2023-05-14T04:49:20;11.40;1.00
14614;DHT22;7393;51.446;6.800;2023-05-14T04:51:47;11.40;1.00
14614;DHT22;7393;51.446;6.800;2023-05-14T04:54:13;11.40;1.00
14614;DHT22;7393;51.446;6.800;2023-05-14T04:56:40;11.40;1.00
14614;DHT22;7393;51.446;6.800;2023-05-14T04:59:07;11.40;1.00
14614;DHT22;7393;51.446;6.800;2023-05-14T05:01:34;11.50;1.00
14614;DHT22;7393;51.446;6.800;2023-05-14T05:04:02;11.50;3.30
14614;DHT22;7393;51.446;6.800;2023-05-14T05:06:29;11.50;32.00
14614;DHT22;7393;51.446;6.800;2023-05-14T05:08:56;11.50;46.70
14614;DHT22;7393;51.446;6.800;2023-05-14T05:11:22;11.50;96.70
14614;DHT22;7393;51.446;6.800;2023-05-14T05:13:49;11.50;99.90
14614;DHT22;7393;51.446;6.800;2023-05-14T05:16:16;11.50;99.90
14614;DHT22;7393;51.446;6.800;2023-05-14T05:18:43;11.60;99.90
14614;DHT22;7393;51.446;6.800;2023-05-14T05:21:11;11.70;99.90
14614;DHT22;7393;51.446;6.800;2023-05-14T05:23:38;11.70;99.90
14614;DHT22;7393;51.446;6.800;2023-05-14T05:26:05;11.80;99.90
14614;DHT22;7393;51.446;6.800;2023-05-14T05:28:31;11.90;99.90
14614;DHT22;7393;51.446;6.800;2023-05-14T05:30:58;11.90;99.90
14614;DHT22;7393;51.446;6.800;2023-05-14T05:33:25;12.00;99.90
14614;DHT22;7393;51.446;6.800;2023-05-14T05:35:52;12.00;99.90
14614;DHT22;7393;51.446;6.800;2023-05-14T05:38:20;12.10;99.90
14614;DHT22;7393;51.446;6.800;2023-05-14T05:40:46;12.20;99.90
14614;DHT22;7393;51.446;6.800;2023-05-14T05:43:14;12.40;99.90
14614;DHT22;7393;51.446;6.800;2023-05-14T05:45:41;12.40;99.90
14614;DHT22;7393;51.446;6.800;2023-05-14T05:48:07;12.50;99.90
14614;DHT22;7393;51.446;6.800;2023-05-14T05:50:34;12.60;49.90
14614;DHT22;7393;51.446;6.800;2023-05-14T05:53:01;12.60;4.50
14614;DHT22;7393;51.446;6.800;2023-05-14T05:55:30;12.70;1.00
14614;DHT22;7393;51.446;6.800;2023-05-14T05:57:56;12.70;1.00
14614;DHT22;7393;51.446;6.800;2023-05-14T06:00:23;12.80;1.00
14614;DHT22;7393;51.446;6.800;2023-05-14T06:02:50;12.90;1.00
14614;DHT22;7393;51.446;6.800;2023-05-14T06:05:17;12.90;99.90
14614;DHT22;7393;51.446;6.800;2023-05-14T06:07:44;13.00;99.90
14614;DHT22;7393;51.446;6.800;2023-05-14T06:10:11;13.10;1.00
14614;DHT22;7393;51.446;6.800;2023-05-14T06:12:39;13.10;1.00
14614;DHT22;7393;51.446;6.800;2023-05-14T06:15:06;13.20;99.90
14614;DHT22;7393;51.446;6.800;2023-05-14T06:17:33;13.30;1.00
14614;DHT22;7393;51.446;6.800;2023-05-14T06:20:00;13.30;99.90
14614;DHT22;7393;51.446;6.800;2023-05-14T06:22:27;13.40;1.00
14614;DHT22;7393;51.446;6.800;2023-05-14T06:24:53;13.50;1.00
14614;DHT22;7393;51.446;6.800;2023-05-14T06:27:20;13.50;1.00
14614;DHT22;7393;51.446;6.800;2023-05-14T06:29:48;13.60;1.00
14614;DHT22;7393;51.446;6.800;2023-05-14T06:32:15;13.60;1.00
14614;DHT22;7393;51.446;6.800;2023-05-14T06:34:42;13.60;16.00
14614;DHT22;7393;51.446;6.800;2023-05-14T06:37:10;13.60;1.00
14614;DHT22;7393;51.446;6.800;2023-05-14T06:39:37;13.70;99.90
14614;DHT22;7393;51.446;6.800;2023-05-14T06:42:05;13.70;1.00
14614;DHT22;7393;51.446;6.800;2023-05-14T06:44:32;13.80;1.00
14614;DHT22;7393;51.446;6.800;2023-05-14T06:47:00;13.80;96.80
14614;DHT22;7393;51.446;6.800;2023-05-14T06:49:27;13.90;98.80
14614;DHT22;7393;51.446;6.800;2023-05-14T06:51:53;14.00;99.90
14614;DHT22;7393;51.446;6.800;2023-05-14T06:54:20;14.10;1.00
14614;DHT22;7393;51.446;6.800;2023-05-14T06:56:47;14.10;1.00
14614;DHT22;7393;51.446;6.800;2023-05-14T06:59:14;14.10;1.00
14614;DHT22;7393;51.446;6.800;2023-05-14T07:01:40;14.20;99.90
14614;DHT22;7393;51.446;6.800;2023-05-14T07:04:09;14.30;1.00
14614;DHT22;7393;51.446;6.800;2023-05-14T07:06:35;14.30;99.90
14614;DHT22;7393;51.446;6.800;2023-05-14T07:09:02;14.40;1.00
14614;DHT22;7393;51.446;6.800;2023-05-14T07:11:29;14.50;99.90
14614;DHT22;7393;51.446;6.800;2023-05-14T07:13:56;14.60;1.00
14614;DHT22;7393;51.446;6.800;2023-05-14T07:16:23;14.70;99.90
14614;DHT22;7393;51.446;6.800;2023-05-14T07:18:50;14.80;1.00
14614;DHT22;7393;51.446;6.800;2023-05-14T07:21:18;14.80;45.20
14614;DHT22;7393;51.446;6.800;2023-05-14T07:23:44;15.00;1.00
14614;DHT22;7393;51.446;6.800;2023-05-14T07:26:11;15.10;1.00
14614;DHT22;7393;51.446;6.800;2023-05-14T07:28:38;15.30;99.90
14614;DHT22;7393;51.446;6.800;2023-05-14T07:31:05;15.50;99.90
14614;DHT22;7393;51.446;6.800;2023-05-14T07:33:33;15.60;1.00
14614;DHT22;7393;51.446;6.800;2023-05-14T07:36:00;15.80;99.90
14614;DHT22;7393;51.446;6.800;2023-05-14T07:38:28;15.90;1.00
14614;DHT22;7393;51.446;6.800;2023-05-14T07:40:55;16.10;1.00
14614;DHT22;7393;51.446;6.800;2023-05-14T07:43:22;16.30;99.90
14614;DHT22;7393;51.446;6.800;2023-05-14T07:45:49;16.40;90.40
14614;DHT22;7393;51.446;6.800;2023-05-14T07:48:16;16.60;99.90
14614;DHT22;7393;51.446;6.800;2023-05-14T07:50:42;16.60;1.00
14614;DHT22;7393;51.446;6.800;2023-05-14T07:53:09;16.70;1.00
14614;DHT22;7393;51.446;6.800;2023-05-14T07:55:38;16.80;1.00
14614;DHT22;7393;51.446;6.800;2023-05-14T07:58:04;16.90;1.00
14614;DHT22;7393;51.446;6.800;2023-05-14T08:00:31;17.00;1.00
14614;DHT22;7393;51.446;6.800;2023-05-14T08:02:58;17.10;1.00
14614;DHT22;7393;51.446;6.800;2023-05-14T08:05:25;17.20;99.90
14614;DHT22;7393;51.446;6.800;2023-05-14T08:07:52;17.30;99.90
14614;DHT22;7393;51.446;6.800;2023-05-14T08:10:18;17.60;99.90
14614;DHT22;7393;51.446;6.800;2023-05-14T08:12:46;17.80;99.90
14614;DHT22;7393;51.446;6.800;2023-05-14T08:15:13;18.00;99.90
14614;DHT22;7393;51.446;6.800;2023-05-14T08:17:40;18.20;99.90
14614;DHT22;7393;51.446;6.800;2023-05-14T08:20:09;18.40;99.90
14614;DHT22;7393;51.446;6.800;2023-05-14T08:22:36;18.50;99.90
14614;DHT22;7393;51.446;6.800;2023-05-14T08:25:04;18.70;99.90
14614;DHT22;7393;51.446;6.800;2023-05-14T08:27:31;18.80;99.90
14614;DHT22;7393;51.446;6.800;2023-05-14T08:29:59;19.00;99.90
14614;DHT22;7393;51.446;6.800;2023-05-14T08:32:26;19.20;94.70
14614;DHT22;7393;51.446;6.800;2023-05-14T08:34:52;19.40;58.40
14614;DHT22;7393;51.446;6.800;2023-05-14T08:37:19;19.60;28.90
14614;DHT22;7393;51.446;6.800;2023-05-14T08:39:46;19.70;1.00
14614;DHT22;7393;51.446;6.800;2023-05-14T08:42:14;19.80;1.00
14614;DHT22;7393;51.446;6.800;2023-05-14T08:44:47;20.00;1.00
14614;DHT22;7393;51.446;6.800;2023-05-14T08:47:17;20.20;1.00
14614;DHT22;7393;51.446;6.800;2023-05-14T08:49:51;20.30;1.00
14614;DHT22;7393;51.446;6.800;2023-05-14T08:52:19;20.50;1.00
14614;DHT22;7393;51.446;6.800;2023-05-14T08:54:50;20.60;1.00
14614;DHT22;7393;51.446;6.800;2023-05-14T08:57:19;20.70;1.00
14614;DHT22;7393;51.446;6.800;2023-05-14T08:59:49;20.90;1.00
14614;DHT22;7393;51.446;6.800;2023-05-14T09:02:19;20.90;1.00
14614;DHT22;7393;51.446;6.800;2023-05-14T09:04:48;21.00;1.00
14614;DHT22;7393;51.446;6.800;2023-05-14T09:07:16;21.20;1.00
14614;DHT22;7393;51.446;6.800;2023-05-14T09:09:43;21.30;1.00
14614;DHT22;7393;51.446;6.800;2023-05-14T09:12:10;21.40;1.00
14614;DHT22;7393;51.446;6.800;2023-05-14T09:14:37;21.40;1.00
14614;DHT22;7393;51.446;6.800;2023-05-14T09:17:04;21.50;1.00
14614;DHT22;7393;51.446;6.800;2023-05-14T09:19:32;21.50;1.00
14614;DHT22;7393;51.446;6.800;2023-05-14T09:21:59;21.50;1.00
14614;DHT22;7393;51.446;6.800;2023-05-14T09:24:26;21.50;1.00
14614;DHT22;7393;51.446;6.800;2023-05-14T09:26:55;21.40;1.00
14614;DHT22;7393;51.446;6.800;2023-05-14T09:29:23;21.60;1.00
14614;DHT22;7393;51.446;6.800;2023-05-14T09:31:50;21.70;1.00
14614;DHT22;7393;51.446;6.800;2023-05-14T09:34:23;22.00;1.00
14614;DHT22;7393;51.446;6.800;2023-05-14T09:36:54;22.10;1.00
14614;DHT22;7393;51.446;6.800;2023-05-14T09:39:22;22.30;1.00
14614;DHT22;7393;51.446;6.800;2023-05-14T09:41:49;22.50;1.00
14614;DHT22;7393;51.446;6.800;2023-05-14T09:44:17;22.60;1.00
14614;DHT22;7393;51.446;6.800;2023-05-14T09:46:44;22.70;1.00
14614;DHT22;7393;51.446;6.800;2023-05-14T09:49:11;22.70;1.00
14614;DHT22;7393;51.446;6.800;2023-05-14T09:51:37;22.80;1.00
14614;DHT22;7393;51.446;6.800;2023-05-14T09:54:06;22.90;1.00
14614;DHT22;7393;51.446;6.800;2023-05-14T09:56:34;22.90;1.00
14614;DHT22;7393;51.446;6.800;2023-05-14T09:59:02;23.00;1.00
14614;DHT22;7393;51.446;6.800;2023-05-14T10:01:29;23.10;1.00
14614;DHT22;7393;51.446;6.800;2023-05-14T10:03:57;23.10;1.00
14614;DHT22;7393;51.446;6.800;2023-05-14T10:06:26;23.10;1.00
14614;DHT22;7393;51.446;6.800;2023-05-14T10:08:55;23.10;1.00
14614;DHT22;7393;51.446;6.800;2023-05-14T10:11:27;23.10;1.00
14614;DHT22;7393;51.446;6.800;2023-05-14T10:14:01;23.20;1.00
14614;DHT22;7393;51.446;6.800;2023-05-14T10:16:32;23.30;1.00
14614;DHT22;7393;51.446;6.800;2023-05-14T10:19:01;23.50;1.00
14614;DHT22;7393;51.446;6.800;2023-05-14T10:21:32;23.60;1.00
14614;DHT22;7393;51.446;6.800;2023-05-14T10:24:00;23.50;1.00
14614;DHT22;7393;51.446;6.800;2023-05-14T10:26:30;23.60;1.00
14614;DHT22;7393;51.446;6.800;2023-05-14T10:28:57;23.70;1.00
14614;DHT22;7393;51.446;6.800;2023-05-14T10:31:45;23.80;1.00
14614;DHT22;7393;51.446;6.800;2023-05-14T10:34:32;24.00;1.00
14614;DHT22;7393;51.446;6.800;2023-05-14T10:37:00;24.00;1.00
14614;DHT22;7393;51.446;6.800;2023-05-14T10:39:43;24.20;1.00
14614;DHT22;7393;51.446;6.800;2023-05-14T10:42:13;24.40;1.00
14614;DHT22;7393;51.446;6.800;2023-05-14T10:44:49;24.40;1.00
14614;DHT22;7393;51.446;6.800;2023-05-14T10:47:16;24.40;1.00
14614;DHT22;7393;51.446;6.800;2023-05-14T10:49:45;24.40;1.00
14614;DHT22;7393;51.446;6.800;2023-05-14T10:52:15;24.20;1.00
14614;DHT22;7393;51.446;6.800;2023-05-14T10:54:47;24.10;1.00
14614;DHT22;7393;51.446;6.800;2023-05-14T10:57:16;23.90;1.00
14614;DHT22;7393;51.446;6.800;2023-05-14T10:59:43;23.70;1.00
14614;DHT22;7393;51.446;6.800;2023-05-14T11:02:21;23.50;1.00
14614;DHT22;7393;51.446;6.800;2023-05-14T11:04:55;23.20;1.00
14614;DHT22;7393;51.446;6.800;2023-05-14T11:07:26;23.20;1.00
14614;DHT22;7393;51.446;6.800;2023-05-14T11:09:59;23.30;1.00
14614;DHT22;7393;51.446;6.800;2023-05-14T11:12:28;23.30;1.00
14614;DHT22;7393;51.446;6.800;2023-05-14T11:14:56;23.40;1.00
14614;DHT22;7393;51.446;6.800;2023-05-14T11:17:24;23.60;1.00
14614;DHT22;7393;51.446;6.800;2023-05-14T11:19:51;23.80;1.00
14614;DHT22;7393;51.446;6.800;2023-05-14T11:22:18;24.00;1.00
14614;DHT22;7393;51.446;6.800;2023-05-14T11:24:45;24.10;1.00
14614;DHT22;7393;51.446;6.800;2023-05-14T11:27:12;24.30;1.00
14614;DHT22;7393;51.446;6.800;2023-05-14T11:29:42;24.50;1.00
14614;DHT22;7393;51.446;6.800;2023-05-14T11:32:09;24.50;1.00
14614;DHT22;7393;51.446;6.800;2023-05-14T11:34:36;24.60;1.00
14614;DHT22;7393;51.446;6.800;2023-05-14T11:37:03;24.80;1.00
14614;DHT22;7393;51.446;6.800;2023-05-14T11:39:30;25.10;1.00
14614;DHT22;7393;51.446;6.800;2023-05-14T11:41:58;25.10;1.00
14614;DHT22;7393;51.446;6.800;2023-05-14T11:44:25;25.10;1.00
14614;DHT22;7393;51.446;6.800;2023-05-14T11:46:57;25.10;1.00
14614;DHT22;7393;51.446;6.800;2023-05-14T11:49:26;25.20;1.00
14614;DHT22;7393;51.446;6.800;2023-05-14T11:51:57;25.20;1.00
14614;DHT22;7393;51.446;6.800;2023-05-14T11:54:25;25.30;1.00
14614;DHT22;7393;51.446;6.800;2023-05-14T11:56:53;25.40;1.00
14614;DHT22;7393;51.446;6.800;2023-05-14T11:59:22;25.60;1.00
14614;DHT22;7393;51.446;6.800;2023-05-14T12:01:49;25.60;1.00
14614;DHT22;7393;51.446;6.800;2023-05-14T12:04:19;25.70;1.00
14614;DHT22;7393;51.446;6.800;2023-05-14T12:06:47;25.60;1.00
14614;DHT22;7393;51.446;6.800;2023-05-14T12:09:15;25.60;1.00
14614;DHT22;7393;51.446;6.800;2023-05-14T12:11:42;25.60;1.00
14614;DHT22;7393;51.446;6.800;2023-05-14T12:14:11;25.60;1.00
14614;DHT22;7393;51.446;6.800;2023-05-14T12:16:40;25.60;1.00
14614;DHT22;7393;51.446;6.800;2023-05-14T12:19:08;25.70;1.00
14614;DHT22;7393;51.446;6.800;2023-05-14T12:21:38;25.80;1.00
14614;DHT22;7393;51.446;6.800;2023-05-14T12:24:08;25.80;1.00
14614;DHT22;7393;51.446;6.800;2023-05-14T12:26:35;26.00;1.00
14614;DHT22;7393;51.446;6.800;2023-05-14T12:29:03;26.20;1.00
14614;DHT22;7393;51.446;6.800;2023-05-14T12:31:32;26.50;1.00
14614;DHT22;7393;51.446;6.800;2023-05-14T12:33:59;26.70;1.00
14614;DHT22;7393;51.446;6.800;2023-05-14T12:36:25;26.70;1.00
14614;DHT22;7393;51.446;6.800;2023-05-14T12:38:58;26.70;1.00
14614;DHT22;7393;51.446;6.800;2023-05-14T12:41:26;26.50;1.00
14614;DHT22;7393;51.446;6.800;2023-05-14T12:43:53;26.10;1.00
14614;DHT22;7393;51.446;6.800;2023-05-14T12:46:20;25.80;1.00
14614;DHT22;7393;51.446;6.800;2023-05-14T12:48:46;25.50;1.00
14614;DHT22;7393;51.446;6.800;2023-05-14T12:51:13;25.40;1.00
14614;DHT22;7393;51.446;6.800;2023-05-14T12:53:40;25.30;1.00
14614;DHT22;7393;51.446;6.800;2023-05-14T12:56:09;25.20;1.00
14614;DHT22;7393;51.446;6.800;2023-05-14T12:58:36;25.20;1.00
14614;DHT22;7393;51.446;6.800;2023-05-14T13:01:03;25.00;1.00
14614;DHT22;7393;51.446;6.800;2023-05-14T13:03:29;24.90;1.00
14614;DHT22;7393;51.446;6.800;2023-05-14T13:05:56;24.90;1.00
14614;DHT22;7393;51.446;6.800;2023-05-14T13:08:23;24.90;1.00
14614;DHT22;7393;51.446;6.800;2023-05-14T13:10:50;24.80;1.00
14614;DHT22;7393;51.446;6.800;2023-05-14T13:13:18;24.90;1.00
14614;DHT22;7393;51.446;6.800;2023-05-14T13:15:45;25.10;1.00
14614;DHT22;7393;51.446;6.800;2023-05-14T13:18:12;25.20;1.00
14614;DHT22;7393;51.446;6.800;2023-05-14T13:20:39;25.10;1.00
14614;DHT22;7393;51.446;6.800;2023-05-14T13:23:06;25.20;1.00
14614;DHT22;7393;51.446;6.800;2023-05-14T13:25:34;25.20;1.00
14614;DHT22;7393;51.446;6.800;2023-05-14T13:28:00;25.20;1.00
14614;DHT22;7393;51.446;6.800;2023-05-14T13:30:29;25.30;1.00
14614;DHT22;7393;51.446;6.800;2023-05-14T13:32:56;25.40;1.00
14614;DHT22;7393;51.446;6.800;2023-05-14T13:35:23;25.60;1.00
14614;DHT22;7393;51.446;6.800;2023-05-14T13:37:50;25.40;1.00
14614;DHT22;7393;51.446;6.800;2023-05-14T13:40:16;25.30;1.00
14614;DHT22;7393;51.446;6.800;2023-05-14T13:42:43;25.20;1.00
14614;DHT22;7393;51.446;6.800;2023-05-14T13:45:11;25.20;1.00
14614;DHT22;7393;51.446;6.800;2023-05-14T13:47:39;25.10;1.00
14614;DHT22;7393;51.446;6.800;2023-05-14T13:50:06;24.80;1.00
14614;DHT22;7393;51.446;6.800;2023-05-14T13:52:33;24.80;1.00
14614;DHT22;7393;51.446;6.800;2023-05-14T13:55:00;24.80;1.00
14614;DHT22;7393;51.446;6.800;2023-05-14T13:57:27;24.60;1.00
14614;DHT22;7393;51.446;6.800;2023-05-14T13:59:54;24.70;1.00
14614;DHT22;7393;51.446;6.800;2023-05-14T14:02:20;24.80;1.00
14614;DHT22;7393;51.446;6.800;2023-05-14T14:04:49;24.80;1.00
14614;DHT22;7393;51.446;6.800;2023-05-14T14:07:15;24.60;1.00
14614;DHT22;7393;51.446;6.800;2023-05-14T14:09:42;24.50;1.00
14614;DHT22;7393;51.446;6.800;2023-05-14T14:12:09;24.40;1.00
14614;DHT22;7393;51.446;6.800;2023-05-14T14:14:36;24.30;1.00
14614;DHT22;7393;51.446;6.800;2023-05-14T14:17:03;24.30;1.00
14614;DHT22;7393;51.446;6.800;2023-05-14T14:19:30;24.10;1.00
14614;DHT22;7393;51.446;6.800;2023-05-14T14:21:58;24.10;1.00
14614;DHT22;7393;51.446;6.800;2023-05-14T14:24:25;24.10;1.00
14614;DHT22;7393;51.446;6.800;2023-05-14T14:26:52;24.30;1.00
14614;DHT22;7393;51.446;6.800;2023-05-14T14:29:18;24.40;1.00
14614;DHT22;7393;51.446;6.800;2023-05-14T14:31:48;24.50;1.00
14614;DHT22;7393;51.446;6.800;2023-05-14T14:34:15;24.50;1.00
14614;DHT22;7393;51.446;6.800;2023-05-14T14:36:41;24.50;1.00
14614;DHT22;7393;51.446;6.800;2023-05-14T14:39:09;24.40;1.00
14614;DHT22;7393;51.446;6.800;2023-05-14T14:41:36;24.30;1.00
14614;DHT22;7393;51.446;6.800;2023-05-14T14:44:03;24.30;1.00
14614;DHT22;7393;51.446;6.800;2023-05-14T14:46:31;24.30;1.00
14614;DHT22;7393;51.446;6.800;2023-05-14T14:48:58;24.30;1.00
14614;DHT22;7393;51.446;6.800;2023-05-14T14:51:25;24.30;1.00
14614;DHT22;7393;51.446;6.800;2023-05-14T14:53:51;24.40;1.00
14614;DHT22;7393;51.446;6.800;2023-05-14T14:56:19;24.40;1.00
14614;DHT22;7393;51.446;6.800;2023-05-14T14:58:46;24.40;1.00
14614;DHT22;7393;51.446;6.800;2023-05-14T15:01:13;24.40;1.00
14614;DHT22;7393;51.446;6.800;2023-05-14T15:03:41;24.30;1.00
14614;DHT22;7393;51.446;6.800;2023-05-14T15:06:09;24.20;1.00
14614;DHT22;7393;51.446;6.800;2023-05-14T15:08:36;24.20;1.00
14614;DHT22;7393;51.446;6.800;2023-05-14T15:11:03;24.10;1.00
14614;DHT22;7393;51.446;6.800;2023-05-14T15:13:32;24.00;1.00
14614;DHT22;7393;51.446;6.800;2023-05-14T15:15:59;23.80;1.00
14614;DHT22;7393;51.446;6.800;2023-05-14T15:18:26;23.70;1.00
14614;DHT22;7393;51.446;6.800;2023-05-14T15:20:53;23.70;1.00
14614;DHT22;7393;51.446;6.800;2023-05-14T15:23:20;23.60;1.00
14614;DHT22;7393;51.446;6.800;2023-05-14T15:25:47;23.40;1.00
14614;DHT22;7393;51.446;6.800;2023-05-14T15:28:14;23.40;1.00
14614;DHT22;7393;51.446;6.800;2023-05-14T15:30:42;23.20;1.00
14614;DHT22;7393;51.446;6.800;2023-05-14T15:33:09;23.20;1.00
14614;DHT22;7393;51.446;6.800;2023-05-14T15:35:36;23.20;1.00
14614;DHT22;7393;51.446;6.800;2023-05-14T15:38:03;23.30;1.00
14614;DHT22;7393;51.446;6.800;2023-05-14T15:40:30;23.30;1.00
14614;DHT22;7393;51.446;6.800;2023-05-14T15:42:59;23.10;1.00
14614;DHT22;7393;51.446;6.800;2023-05-14T15:45:26;23.00;1.00
14614;DHT22;7393;51.446;6.800;2023-05-14T15:47:54;22.90;1.00
14614;DHT22;7393;51.446;6.800;2023-05-14T15:50:21;22.90;1.00
14614;DHT22;7393;51.446;6.800;2023-05-14T15:52:47;23.00;1.00
14614;DHT22;7393;51.446;6.800;2023-05-14T15:55:14;23.10;1.00
14614;DHT22;7393;51.446;6.800;2023-05-14T15:57:41;23.10;1.00
14614;DHT22;7393;51.446;6.800;2023-05-14T16:00:09;23.10;1.00